createdAt,value
2018-11-01T00:07:36.706Z,6.90
2018-11-01T00:10:04.586Z,6.90
2018-11-01T00:14:59.826Z,7.00
2018-11-01T00:17:27.466Z,7.00
2018-11-01T00:19:55.109Z,7.00
2018-11-01T00:27:17.919Z,6.90
2018-11-01T00:29:45.590Z,6.90
2018-11-01T00:34:40.770Z,7.00
2018-11-01T00:37:08.406Z,7.00
2018-11-01T00:42:03.694Z,7.00
2018-11-01T00:51:54.095Z,6.90
2018-11-01T00:56:49.326Z,6.90
2018-11-01T00:59:16.978Z,6.90
2018-11-01T01:01:44.629Z,6.90
2018-11-01T01:09:10.001Z,6.90
2018-11-01T01:11:37.717Z,6.80
2018-11-01T01:21:28.255Z,6.70
2018-11-01T01:23:55.894Z,6.60
2018-11-01T01:28:51.099Z,6.60
2018-11-01T01:33:46.374Z,6.50
2018-11-01T01:36:13.987Z,6.50
2018-11-01T01:46:04.391Z,6.30
2018-11-01T01:53:27.195Z,6.40
2018-11-01T01:55:54.960Z,6.40
2018-11-01T02:00:50.251Z,6.40
2018-11-01T02:03:17.901Z,6.30
2018-11-01T02:08:13.214Z,6.30
2018-11-01T02:13:08.638Z,6.30
2018-11-01T02:20:31.463Z,6.10
2018-11-01T02:25:26.721Z,6.00
2018-11-01T02:35:22.973Z,6.00
2018-11-01T02:37:50.669Z,5.90
2018-11-01T02:40:18.313Z,5.90
2018-11-01T02:47:42.019Z,5.80
2018-11-01T02:50:10.858Z,5.80
2018-11-01T02:52:38.826Z,5.80
2018-11-01T03:00:01.833Z,5.70
2018-11-01T03:02:29.582Z,5.70
2018-11-01T03:07:25.208Z,5.70
2018-11-01T03:09:52.977Z,5.70
2018-11-01T03:17:16.048Z,5.70
2018-11-01T03:24:39.033Z,5.70
2018-11-01T03:27:06.746Z,5.70
2018-11-01T03:29:34.390Z,5.70
2018-11-01T03:34:29.823Z,5.70
2018-11-01T03:36:57.515Z,5.70
2018-11-01T03:39:25.160Z,5.80
2018-11-01T03:44:20.498Z,5.80
2018-11-01T03:46:48.298Z,5.80
2018-11-01T03:49:16.077Z,5.90
2018-11-01T03:54:11.320Z,5.90
2018-11-01T03:56:38.977Z,5.90
2018-11-01T04:04:01.740Z,6.00
2018-11-01T04:06:29.408Z,5.90
2018-11-01T04:16:19.922Z,6.10
2018-11-01T04:18:47.601Z,6.10
2018-11-01T04:23:42.938Z,6.10
2018-11-01T04:26:10.562Z,6.20
2018-11-01T04:33:33.632Z,6.20
2018-11-01T04:36:01.148Z,6.20
2018-11-01T04:38:28.800Z,6.20
2018-11-01T04:48:18.950Z,6.30
2018-11-01T04:53:14.101Z,6.30
2018-11-01T05:00:36.754Z,6.40
2018-11-01T05:03:04.453Z,6.50
2018-11-01T05:10:27.094Z,6.60
2018-11-01T05:15:22.299Z,6.60
2018-11-01T05:20:17.434Z,6.70
2018-11-01T05:22:45.024Z,6.70
2018-11-01T05:25:12.637Z,6.60
2018-11-01T05:30:09.275Z,6.60
2018-11-01T05:32:36.871Z,6.60
2018-11-01T05:37:32.082Z,6.70
2018-11-01T05:42:28.406Z,6.80
2018-11-01T05:47:23.555Z,6.90
2018-11-01T05:49:51.195Z,6.90
2018-11-01T05:54:46.401Z,6.90
2018-11-01T05:57:13.990Z,6.90
2018-11-01T06:04:40.682Z,6.80
2018-11-01T06:07:08.283Z,6.80
2018-11-01T06:09:35.887Z,6.80
2018-11-01T06:12:03.514Z,6.90
2018-11-01T06:14:31.098Z,6.90
2018-11-01T06:16:58.718Z,7.00
2018-11-01T06:19:26.344Z,7.00
2018-11-01T06:24:21.436Z,7.00
2018-11-01T06:31:44.180Z,7.10
2018-11-01T06:36:47.903Z,7.00
2018-11-01T06:46:42.337Z,7.20
2018-11-01T06:49:09.902Z,7.30
2018-11-01T07:11:18.001Z,7.40
2018-11-01T07:18:40.650Z,7.70
2018-11-01T07:21:08.306Z,7.50
2018-11-01T07:33:26.085Z,7.80
2018-11-01T07:35:53.769Z,7.70
2018-11-01T07:43:16.741Z,8.00
2018-11-01T07:53:06.927Z,8.10
2018-11-01T07:58:02.489Z,8.10
2018-11-01T08:05:25.235Z,8.20
2018-11-01T08:10:20.350Z,8.50
2018-11-01T08:15:17.845Z,8.80
2018-11-01T08:17:45.568Z,9.00
2018-11-01T08:20:13.931Z,9.20
2018-11-01T08:27:38.055Z,9.20
2018-11-01T08:30:07.135Z,9.10
2018-11-01T08:35:02.327Z,9.30
2018-11-01T08:39:57.659Z,9.50
2018-11-01T08:42:25.457Z,9.60
2018-11-01T08:47:20.615Z,9.70
2018-11-01T08:49:48.272Z,9.90
2018-11-01T08:52:15.877Z,10.00
2018-11-01T09:04:33.682Z,10.50
2018-11-01T09:07:01.314Z,10.50
2018-11-01T09:09:28.955Z,10.60
2018-11-01T09:11:56.551Z,10.60
2018-11-01T09:14:24.195Z,10.50
2018-11-01T09:21:46.943Z,10.60
2018-11-01T09:29:10.071Z,10.70
2018-11-01T09:36:32.758Z,10.80
2018-11-01T09:41:27.928Z,11.00
2018-11-01T09:43:55.549Z,11.00
2018-11-01T09:46:23.267Z,11.00
2018-11-01T09:51:18.298Z,10.80
2018-11-01T09:53:45.906Z,10.60
2018-11-01T09:56:13.527Z,10.40
2018-11-01T10:06:03.785Z,10.60
2018-11-01T10:08:31.389Z,10.80
2018-11-01T10:16:01.652Z,10.90
2018-11-01T10:25:51.623Z,12.00
2018-11-01T10:35:41.806Z,12.30
2018-11-01T10:47:59.650Z,12.40
2018-11-01T11:00:23.242Z,12.30
2018-11-01T11:02:51.361Z,12.40
2018-11-01T11:05:20.104Z,12.40
2018-11-01T11:12:43.474Z,12.40
2018-11-01T11:17:38.950Z,12.40
2018-11-01T11:20:07.482Z,12.30
2018-11-01T11:22:35.346Z,12.20
2018-11-01T11:29:58.375Z,12.30
2018-11-01T11:32:25.949Z,12.40
2018-11-01T11:42:16.162Z,12.70
2018-11-01T11:44:43.804Z,12.70
2018-11-01T11:52:06.318Z,13.10
2018-11-01T11:55:36.619Z,13.00
2018-11-01T12:00:31.774Z,13.20
2018-11-01T12:07:54.474Z,13.30
2018-11-01T12:10:22.066Z,13.40
2018-11-01T12:22:40.952Z,13.50
2018-11-01T12:27:36.670Z,13.30
2018-11-01T12:30:05.315Z,13.40
2018-11-01T12:35:00.480Z,13.40
2018-11-01T12:37:28.108Z,13.60
2018-11-01T12:42:23.240Z,13.70
2018-11-01T12:47:18.434Z,14.80
2018-11-01T12:49:46.115Z,15.20
2018-11-01T13:16:50.842Z,14.50
2018-11-01T13:21:45.993Z,14.80
2018-11-01T13:24:13.660Z,14.80
2018-11-01T13:26:41.238Z,15.30
2018-11-01T13:29:08.892Z,15.40
2018-11-01T13:36:31.579Z,16.10
2018-11-01T13:41:26.695Z,16.30
2018-11-01T13:46:21.822Z,16.30
2018-11-01T13:56:12.025Z,15.60
2018-11-01T13:58:39.642Z,15.40
2018-11-01T14:01:07.248Z,15.30
2018-11-01T14:03:34.880Z,15.10
2018-11-01T14:08:30.043Z,14.90
2018-11-01T14:20:47.746Z,14.60
2018-11-01T14:23:15.370Z,14.50
2018-11-01T14:33:05.574Z,14.30
2018-11-01T14:45:23.386Z,14.10
2018-11-01T14:47:51.002Z,14.10
2018-11-01T14:55:14.954Z,13.90
2018-11-01T15:00:09.814Z,13.90
2018-11-01T15:05:05.598Z,13.60
2018-11-01T15:12:28.284Z,13.40
2018-11-01T15:14:55.870Z,13.00
2018-11-01T15:17:23.479Z,13.10
2018-11-01T15:24:46.128Z,12.80
2018-11-01T15:39:36.697Z,12.40
2018-11-01T15:44:31.970Z,12.20
2018-11-01T15:46:59.587Z,12.10
2018-11-01T15:49:27.224Z,12.10
2018-11-01T15:54:22.401Z,11.90
2018-11-01T15:59:17.791Z,11.80
2018-11-01T16:04:13.113Z,11.60
2018-11-01T16:11:36.653Z,11.40
2018-11-01T16:18:59.338Z,11.10
2018-11-01T16:36:14.771Z,10.80
2018-11-01T16:41:09.966Z,10.60
2018-11-01T16:53:27.672Z,10.30
2018-11-01T17:00:50.328Z,10.20
2018-11-01T17:10:40.582Z,10.10
2018-11-01T17:15:35.702Z,10.10
2018-11-01T17:20:30.922Z,10.00
2018-11-01T17:22:58.530Z,10.00
2018-11-01T17:27:53.726Z,10.00
2018-11-01T17:30:21.330Z,10.00
2018-11-01T17:40:13.461Z,9.90
2018-11-01T17:50:07.387Z,10.00
2018-11-01T17:52:35.023Z,10.00
2018-11-01T17:59:57.922Z,10.20
2018-11-01T18:04:53.282Z,10.40
2018-11-01T18:14:43.493Z,10.30
2018-11-01T18:19:38.751Z,10.20
2018-11-01T18:24:33.883Z,10.20
2018-11-01T18:29:29.110Z,10.30
2018-11-01T18:36:51.926Z,10.40
2018-11-01T18:46:42.188Z,10.70
2018-11-01T18:49:09.789Z,10.90
2018-11-01T18:51:37.443Z,10.90
2018-11-01T19:06:23.590Z,11.10
2018-11-01T19:13:46.526Z,11.50
2018-11-01T19:18:41.706Z,11.30
2018-11-01T19:33:27.489Z,10.90
2018-11-01T19:35:55.279Z,10.80
2018-11-01T19:38:22.915Z,10.80
2018-11-01T19:53:09.118Z,10.90
2018-11-01T19:58:04.724Z,10.80
2018-11-01T20:00:32.386Z,10.90
2018-11-01T20:03:00.055Z,10.70
2018-11-01T20:25:09.554Z,9.90
2018-11-01T20:30:07.575Z,10.00
2018-11-01T20:32:35.423Z,9.90
2018-11-01T20:37:30.791Z,9.80
2018-11-01T20:59:38.881Z,9.20
2018-11-01T21:04:34.094Z,9.10
2018-11-01T21:09:29.304Z,8.90
2018-11-01T21:14:24.517Z,9.10
2018-11-01T21:26:43.784Z,9.10
2018-11-01T21:39:02.486Z,9.20
2018-11-01T21:43:58.034Z,9.30
2018-11-01T21:51:20.779Z,9.30
2018-11-01T21:56:15.923Z,9.30
2018-11-01T21:58:43.563Z,9.30
2018-11-01T22:01:11.158Z,9.30
2018-11-01T22:08:33.840Z,9.10
2018-11-01T22:11:01.453Z,9.10
2018-11-01T22:18:24.239Z,9.00
2018-11-01T22:23:19.431Z,8.80
2018-11-01T22:30:42.082Z,8.70
2018-11-01T22:35:37.990Z,8.70
2018-11-01T22:38:05.623Z,8.50
2018-11-01T22:43:00.769Z,8.60
2018-11-01T22:47:56.753Z,8.50
2018-11-01T22:50:25.318Z,8.40
2018-11-01T22:55:20.699Z,8.40
2018-11-01T22:57:48.317Z,8.40
2018-11-01T23:02:43.859Z,8.30
2018-11-01T23:10:09.767Z,8.30
2018-11-01T23:12:37.558Z,8.20
2018-11-01T23:15:05.875Z,8.20
2018-11-01T23:32:18.674Z,8.30
2018-11-01T23:34:46.559Z,8.30
2018-11-01T23:42:25.941Z,8.20
2018-11-01T23:55:00.530Z,8.10
2018-11-01T23:59:55.595Z,8.20
